»·PEaware :: N653SL KHND-KTUS

N653SL :: KHND-KTUS

FLIGHT INFORMATION

Flight Status: Arrived
Operator: Privately registered:
United States
More flights under this callsign
Pilot: David I. (28153)
Aircraft: CESSNA 550 CITATION 2/S2/BRAVO
(C550)
More flights by this aircraft type
Origin: KHND Henderson
United States
Destination: KTUS Tucson Intl
United States
More flights between these airports :: More routes between these airports
Route: +PALLY6 DRK J11 PXR DINGO5
File this flight plan on PilotEdge
Remarks:
Altitude:
(Current/Filed)
27,000ft
Speed:
(Current/Filed)
350kts
Departed: 09-Nov-20 01:22 PM
Arrived: 09-Nov-20 02:29 PM
Distance/Time
Traveled:
311nm/1:06
Distance/Time
To Go:
Arrived

Flight Plot

Page will automatically refresh every two minutes.

Flight plan parsing failed; only flown route is shown


Map Options




Map Legend


Flown Route
Filed Route
Departure Airport
Arrival Airport
Navaid (VOR, NDB)
Fix

Horizontal Profiles

Position Reports

Time Latitude Longitude Heading Altitude Ground
Speed
09-Nov-20 13:02 35.977825 -115.137949 2 2413ft 0kts
09-Nov-20 13:02 35.977825 -115.137949 2 2413ft 0kts
09-Nov-20 13:04 35.977825 -115.137949 2 2413ft 0kts
09-Nov-20 13:04 35.977825 -115.137949 2 2413ft 0kts
09-Nov-20 13:06 35.977825 -115.137949 2 2413ft 0kts
09-Nov-20 13:06 35.977825 -115.137949 2 2413ft 0kts
09-Nov-20 13:08 35.977825 -115.137949 2 2413ft 0kts
09-Nov-20 13:08 35.977825 -115.137949 2 2413ft 0kts
09-Nov-20 13:10 35.977825 -115.137949 2 2413ft 0kts
09-Nov-20 13:10 35.977825 -115.137949 2 2413ft 0kts
09-Nov-20 13:11 35.977825 -115.137949 2 2413ft 0kts
09-Nov-20 13:12 35.977831 -115.137948 2 2413ft 0kts
09-Nov-20 13:13 35.977977 -115.137774 81 2413ft 0kts
09-Nov-20 13:14 35.977985 -115.137498 90 2414ft 3kts
09-Nov-20 13:15 35.976913 -115.136391 180 2419ft 7kts
09-Nov-20 13:16 35.974437 -115.136424 180 2432ft 5kts
09-Nov-20 13:17 35.971850 -115.136454 180 2445ft 13kts
09-Nov-20 13:18 35.967959 -115.136501 180 2466ft 11kts
09-Nov-20 13:19 35.964869 -115.136540 180 2483ft 10kts
09-Nov-20 13:20 35.963105 -115.136042 90 2493ft 7kts
09-Nov-20 13:21 35.983211 -115.135989 358 3362ft 152kts
09-Nov-20 13:22 36.008573 -115.090860 88 6015ft 225kts
09-Nov-20 13:23 35.997349 -115.004890 131 6396ft 271kts
09-Nov-20 13:24 35.937074 -114.968918 162 9242ft 240kts
09-Nov-20 13:25 35.874245 -114.989105 221 11458ft 269kts
09-Nov-20 13:26 35.811863 -115.051949 222 13673ft 306kts
09-Nov-20 13:27 35.752640 -115.127229 243 15866ft 311kts
09-Nov-20 13:28 35.710237 -115.222414 244 17596ft 325kts
09-Nov-20 13:29 35.636767 -115.275467 175 19188ft 354kts
09-Nov-20 13:30 35.539381 -115.254815 173 20780ft 357kts
09-Nov-20 13:31 35.441004 -115.235475 173 22379ft 360kts
09-Nov-20 13:32 35.340916 -115.216350 173 23980ft 369kts
09-Nov-20 13:33 35.239237 -115.196962 174 25585ft 372kts
09-Nov-20 13:34 35.137246 -115.175709 160 27082ft 379kts
09-Nov-20 13:35 35.073363 -115.070206 116 27135ft 411kts
09-Nov-20 13:36 35.012889 -114.947296 121 27135ft 430kts
09-Nov-20 13:37 34.948473 -114.822996 122 27135ft 439kts
09-Nov-20 13:38 34.882866 -114.697064 124 27138ft 443kts
09-Nov-20 13:39 34.816531 -114.570168 124 27138ft 444kts
09-Nov-20 13:40 34.759939 -114.437987 92 27138ft 446kts
09-Nov-20 13:41 34.760633 -114.287284 88 27120ft 446kts
09-Nov-20 13:42 34.757531 -114.136953 89 27115ft 445kts
09-Nov-20 13:43 34.753550 -113.986701 90 27117ft 445kts
09-Nov-20 13:44 34.749285 -113.836213 89 27119ft 446kts
09-Nov-20 13:45 34.744751 -113.685246 90 27119ft 446kts
09-Nov-20 13:46 34.740193 -113.534751 90 27121ft 446kts
09-Nov-20 13:47 34.735374 -113.384177 90 27121ft 446kts
09-Nov-20 13:48 34.730283 -113.233352 90 27111ft 446kts
09-Nov-20 13:49 34.725193 -113.082618 90 27094ft 446kts
09-Nov-20 13:50 34.719824 -112.931606 91 27091ft 450kts
09-Nov-20 13:51 34.714018 -112.777850 92 27093ft 460kts
09-Nov-20 13:52 34.708186 -112.620458 92 27098ft 467kts
09-Nov-20 13:53 34.691252 -112.465561 126 27097ft 458kts
09-Nov-20 13:54 34.588761 -112.413082 185 27100ft 398kts
09-Nov-20 13:55 34.477804 -112.386778 173 27102ft 414kts
09-Nov-20 13:56 34.369327 -112.344892 171 27092ft 417kts
09-Nov-20 13:57 34.259186 -112.300166 171 26743ft 406kts
09-Nov-20 13:58 34.152456 -112.257200 170 25242ft 406kts
09-Nov-20 13:59 34.045559 -112.214167 169 24114ft 398kts
09-Nov-20 14:00 33.942017 -112.172677 170 24108ft 399kts
09-Nov-20 14:01 33.834849 -112.129935 169 24107ft 412kts
09-Nov-20 14:02 33.725808 -112.086362 169 24108ft 414kts
09-Nov-20 14:03 33.616493 -112.042812 169 24110ft 413kts
09-Nov-20 14:04 33.507441 -111.999550 169 24107ft 413kts
09-Nov-20 14:05 33.397934 -111.966408 182 24103ft 400kts
09-Nov-20 14:06 33.287649 -111.953792 183 24105ft 399kts
09-Nov-20 14:07 33.177135 -111.941359 183 24111ft 399kts
09-Nov-20 14:08 33.067000 -111.928993 184 24114ft 397kts
09-Nov-20 14:09 32.962182 -111.916857 186 24114ft 342kts
09-Nov-20 14:10 32.870855 -111.898013 160 22550ft 366kts
09-Nov-20 14:11 32.786402 -111.826799 154 20867ft 371kts
09-Nov-20 14:12 32.702442 -111.756736 153 19187ft 367kts
09-Nov-20 14:13 32.619403 -111.688204 152 17510ft 361kts
09-Nov-20 14:14 32.541090 -111.615336 136 15831ft 364kts
09-Nov-20 14:15 32.481879 -111.522486 130 14154ft 341kts
09-Nov-20 14:16 32.426469 -111.434610 130 12473ft 327kts
09-Nov-20 14:17 32.372836 -111.349933 129 10799ft 320kts
09-Nov-20 14:18 32.325914 -111.262971 122 9979ft 295kts
09-Nov-20 14:19 32.279938 -111.187753 139 9696ft 280kts
09-Nov-20 14:20 32.222351 -111.124878 139 8192ft 283kts
09-Nov-20 14:21 32.165857 -111.063596 139 7002ft 263kts
09-Nov-20 14:22 32.116205 -111.008127 139 6757ft 241kts
09-Nov-20 14:23 32.069980 -110.950930 132 5069ft 221kts
09-Nov-20 14:24 32.046421 -110.909865 124 4604ft 131kts
09-Nov-20 14:25 32.055022 -110.877748 358 3823ft 121kts
09-Nov-20 14:26 32.078564 -110.895415 310 3333ft 98kts
09-Nov-20 14:27 32.096904 -110.916775 311 2804ft 87kts
09-Nov-20 14:28 32.109824 -110.931990 313 2626ft 34kts
09-Nov-20 14:29 32.112032 -110.932085 316 2626ft 10kts
09-Nov-20 14:30 32.115532 -110.936184 314 2615ft 19kts
09-Nov-20 14:31 32.119137 -110.940408 314 2601ft 17kts
09-Nov-20 14:32 32.122599 -110.944473 315 2589ft 17kts
09-Nov-20 14:33 32.125541 -110.946648 44 2578ft 9kts
09-Nov-20 14:34 32.126185 -110.945342 135 2577ft 6kts
09-Nov-20 14:35 32.125533 -110.945154 225 2578ft 0kts
09-Nov-20 14:36 32.125533 -110.945154 225 2578ft 0kts

Navigation Log

Ident Type
Flight plan parsing failed, navigation log unavailable